createdAt,value
2019-06-07T00:00:44.345Z,101113.08
2019-06-07T00:01:50.426Z,101114.42
2019-06-07T00:02:55.321Z,101108.03
2019-06-07T00:04:00.836Z,101115.23
2019-06-07T00:05:10.148Z,101109.88
2019-06-07T00:06:21.304Z,101105.17
2019-06-07T00:07:23.607Z,101108.00
2019-06-07T00:08:29.654Z,101108.49
2019-06-07T00:09:34.914Z,101109.52
2019-06-07T00:10:40.510Z,101106.48
2019-06-07T00:11:45.379Z,101110.65
2019-06-07T00:12:51.192Z,101111.49
2019-06-07T00:13:56.156Z,101116.02
2019-06-07T00:15:01.646Z,101116.19
2019-06-07T00:16:08.548Z,101118.52
2019-06-07T00:17:19.637Z,101116.68
2019-06-07T00:18:26.165Z,101120.35
2019-06-07T00:19:31.144Z,101127.58
2019-06-07T00:20:36.059Z,101119.18
2019-06-07T00:22:13.804Z,101116.50
2019-06-07T00:22:48.594Z,101116.15
2019-06-07T00:23:54.229Z,101113.11
2019-06-07T00:24:59.377Z,101112.80
2019-06-07T00:26:05.197Z,101105.25
2019-06-07T00:27:11.633Z,101104.05
2019-06-07T00:28:18.818Z,101108.91
2019-06-07T00:29:24.343Z,101101.05
2019-06-07T00:30:41.014Z,101093.00
2019-06-07T00:31:36.832Z,101099.49
2019-06-07T00:32:42.418Z,101087.25
2019-06-07T00:33:47.913Z,101083.89
2019-06-07T00:34:53.515Z,101080.02
2019-06-07T00:35:58.414Z,101081.17
2019-06-07T00:37:04.241Z,101079.48
2019-06-07T00:38:09.460Z,101079.80
2019-06-07T00:39:21.928Z,101080.81
2019-06-07T00:40:31.477Z,101082.80
2019-06-07T00:41:29.821Z,101087.84
2019-06-07T00:42:38.266Z,101089.67
2019-06-07T00:43:43.739Z,101092.84
2019-06-07T00:44:49.168Z,101099.16
2019-06-07T00:45:54.707Z,101101.48
2019-06-07T00:46:59.666Z,101102.83
2019-06-07T00:48:05.598Z,101098.80
2019-06-07T00:49:13.352Z,101105.19
2019-06-07T00:50:21.931Z,101104.16
2019-06-07T00:51:24.585Z,101103.84
2019-06-07T00:53:36.856Z,101103.49
2019-06-07T00:54:42.695Z,101103.00
2019-06-07T00:55:47.898Z,101103.98
2019-06-07T00:56:53.432Z,101105.33
2019-06-07T00:57:58.664Z,101105.81
2019-06-07T00:59:11.067Z,101104.16
2019-06-07T01:00:12.304Z,101104.16
2019-06-07T01:01:22.260Z,101102.32
2019-06-07T01:02:29.108Z,101102.46
2019-06-07T01:03:31.977Z,101098.09
2019-06-07T01:04:36.892Z,101094.07
2019-06-07T01:05:42.351Z,101096.08
2019-06-07T01:06:47.354Z,101102.10
2019-06-07T01:07:52.927Z,101105.77
2019-06-07T01:08:57.795Z,101105.77
2019-06-07T01:10:03.499Z,101106.40
2019-06-07T01:11:08.617Z,101114.80
2019-06-07T01:12:18.114Z,101110.42
2019-06-07T01:13:23.838Z,101113.95
2019-06-07T01:14:29.012Z,101108.41
2019-06-07T01:15:34.150Z,101108.05
2019-06-07T01:16:56.753Z,101104.03
2019-06-07T01:18:32.534Z,101104.69
2019-06-07T01:18:53.898Z,101101.34
2019-06-07T01:19:58.904Z,101100.98
2019-06-07T01:21:04.398Z,101105.00
2019-06-07T01:22:09.343Z,101106.66
2019-06-07T01:23:57.371Z,101096.92
2019-06-07T01:24:24.458Z,101099.25
2019-06-07T01:25:29.188Z,101100.27
2019-06-07T01:26:34.181Z,101103.79
2019-06-07T01:27:40.058Z,101103.57
2019-06-07T01:28:45.226Z,101103.25
2019-06-07T01:29:50.806Z,101098.03
2019-06-07T01:30:56.003Z,101102.90
2019-06-07T01:32:01.519Z,101110.25
2019-06-07T01:33:06.441Z,101105.04
2019-06-07T01:34:11.930Z,101108.20
2019-06-07T01:35:20.055Z,101107.53
2019-06-07T01:36:28.919Z,101103.16
2019-06-07T01:37:31.049Z,101104.17
2019-06-07T01:38:36.616Z,101100.65
2019-06-07T01:39:41.748Z,101101.63
2019-06-07T01:40:47.296Z,101105.79
2019-06-07T01:41:52.209Z,101106.14
2019-06-07T01:42:57.992Z,101107.13
2019-06-07T01:44:02.975Z,101101.45
2019-06-07T01:45:09.424Z,101106.31
2019-06-07T01:46:14.337Z,101108.14
2019-06-07T01:47:21.256Z,101103.77
2019-06-07T01:48:45.308Z,101108.78
2019-06-07T01:49:33.795Z,101107.11
2019-06-07T01:50:38.925Z,101104.08
2019-06-07T01:51:44.727Z,101109.08
2019-06-07T01:52:49.707Z,101113.09
2019-06-07T01:54:41.565Z,101102.55
2019-06-07T01:55:02.431Z,101104.39
2019-06-07T01:56:08.180Z,101098.67
2019-06-07T01:57:31.129Z,101101.84
2019-06-07T01:58:22.080Z,101097.02
2019-06-07T01:59:28.474Z,101099.34
2019-06-07T02:00:34.298Z,101100.67
2019-06-07T02:01:39.144Z,101098.98
2019-06-07T02:02:44.742Z,101099.83
2019-06-07T02:03:50.064Z,101101.66
2019-06-07T02:04:55.649Z,101099.15
2019-06-07T02:06:00.637Z,101097.10
2019-06-07T02:07:06.666Z,101089.23
2019-06-07T02:08:11.783Z,101087.55
2019-06-07T02:09:18.467Z,101083.34
2019-06-07T02:10:27.447Z,101082.49
2019-06-07T02:11:31.816Z,101083.16
2019-06-07T02:12:43.071Z,101085.47
2019-06-07T02:13:44.466Z,101086.45
2019-06-07T02:14:49.388Z,101082.09
2019-06-07T02:15:54.882Z,101087.12
2019-06-07T02:16:59.827Z,101078.73
2019-06-07T02:18:05.708Z,101081.58
2019-06-07T02:19:10.651Z,101077.70
2019-06-07T02:20:16.632Z,101083.70
2019-06-07T02:21:25.726Z,101073.00
2019-06-07T02:22:32.107Z,101074.48
2019-06-07T02:23:35.416Z,101076.80
2019-06-07T02:24:40.932Z,101076.80
2019-06-07T02:25:50.353Z,101068.94
2019-06-07T02:26:53.373Z,101065.91
2019-06-07T02:28:25.905Z,101068.58
2019-06-07T02:29:05.777Z,101076.97
2019-06-07T02:31:19.015Z,101072.23
2019-06-07T02:32:25.109Z,101077.27
2019-06-07T02:33:39.209Z,101076.91
2019-06-07T02:34:39.724Z,101075.22
2019-06-07T02:35:45.648Z,101072.22
2019-06-07T02:36:50.555Z,101072.22
2019-06-07T02:37:56.178Z,101070.03
2019-06-07T02:39:01.092Z,101067.98
2019-06-07T02:40:07.556Z,101062.63
2019-06-07T02:41:12.535Z,101065.47
2019-06-07T02:42:18.409Z,101058.42
2019-06-07T02:43:24.969Z,101061.10
2019-06-07T02:44:35.984Z,101055.42
2019-06-07T02:45:43.072Z,101051.41
2019-06-07T02:46:49.121Z,101047.53
2019-06-07T02:47:51.637Z,101050.70
2019-06-07T02:48:57.219Z,101048.20
2019-06-07T02:50:02.198Z,101050.02
2019-06-07T02:51:07.950Z,101041.99
2019-06-07T02:52:12.854Z,101046.01
2019-06-07T02:53:18.686Z,101046.01
2019-06-07T02:54:24.485Z,101047.34
2019-06-07T02:55:37.183Z,101050.52
2019-06-07T02:56:52.310Z,101045.16
2019-06-07T02:57:45.668Z,101041.64
2019-06-07T02:58:50.613Z,101044.67
2019-06-07T03:00:16.579Z,101046.14
2019-06-07T03:01:09.211Z,101041.28
2019-06-07T03:02:10.453Z,101042.62
2019-06-07T03:03:16.054Z,101043.25
2019-06-07T03:04:21.881Z,101037.22
2019-06-07T03:05:27.382Z,101039.05
2019-06-07T03:06:38.916Z,101031.16
2019-06-07T03:07:45.289Z,101034.19
2019-06-07T03:08:49.726Z,101032.16
2019-06-07T03:09:56.026Z,101031.32
2019-06-07T03:11:03.678Z,101028.78
2019-06-07T03:12:11.602Z,101027.94
2019-06-07T03:13:22.320Z,101026.10
2019-06-07T03:14:28.669Z,101028.78
2019-06-07T03:15:47.876Z,101019.91
2019-06-07T03:16:52.376Z,101022.09
2019-06-07T03:18:21.163Z,101027.44
2019-06-07T03:19:37.589Z,101024.41
2019-06-07T03:20:43.277Z,101028.09
2019-06-07T03:21:49.310Z,101027.25
2019-06-07T03:22:55.769Z,101027.25
2019-06-07T03:24:00.738Z,101024.71
2019-06-07T03:25:06.978Z,101028.40
2019-06-07T03:26:12.220Z,101018.68
2019-06-07T03:27:41.454Z,101016.98
2019-06-07T03:28:25.565Z,101027.69
2019-06-07T03:29:32.260Z,101019.83
2019-06-07T03:30:57.102Z,101019.97
2019-06-07T03:31:47.422Z,101022.15
2019-06-07T03:32:52.160Z,101022.31
2019-06-07T03:33:57.770Z,101022.81
2019-06-07T03:35:02.788Z,101021.60
2019-06-07T03:36:23.301Z,101017.76
2019-06-07T03:37:15.146Z,101020.08
2019-06-07T03:38:20.655Z,101017.21
2019-06-07T03:39:28.006Z,101017.70
2019-06-07T03:40:36.929Z,101020.02
2019-06-07T03:41:49.858Z,101015.16
2019-06-07T03:42:47.378Z,101017.52
2019-06-07T03:43:52.541Z,101025.53
2019-06-07T03:44:58.015Z,101022.50
2019-06-07T03:46:02.930Z,101025.67
2019-06-07T03:47:08.444Z,101024.83
2019-06-07T03:48:13.355Z,101020.32
2019-06-07T03:49:18.922Z,101021.66
2019-06-07T03:50:24.240Z,101016.31
2019-06-07T03:51:30.619Z,101016.47
2019-06-07T03:52:40.959Z,101009.92
2019-06-07T03:53:44.432Z,101008.59
2019-06-07T03:54:49.401Z,101004.08
2019-06-07T03:55:54.889Z,101004.22
2019-06-07T03:56:59.778Z,100992.34
2019-06-07T03:59:12.265Z,100990.16
2019-06-07T04:00:18.148Z,100991.50
2019-06-07T04:01:23.151Z,100988.83
2019-06-07T04:02:30.361Z,100991.50
2019-06-07T04:03:43.564Z,100995.88
2019-06-07T04:04:42.807Z,100992.34
2019-06-07T04:05:47.744Z,100999.87
2019-06-07T04:06:53.256Z,101005.23
2019-06-07T04:07:58.138Z,101003.40
2019-06-07T04:09:03.723Z,101001.05
2019-06-07T04:10:08.842Z,101005.06
2019-06-07T04:11:14.307Z,101010.77
2019-06-07T04:12:19.208Z,101002.25
2019-06-07T04:13:24.748Z,100997.40
2019-06-07T04:14:30.832Z,101000.07
2019-06-07T04:15:40.375Z,101002.25
2019-06-07T04:16:44.819Z,101003.73
2019-06-07T04:18:02.091Z,100999.72
2019-06-07T04:18:57.434Z,100996.06
2019-06-07T04:20:03.265Z,100993.88
2019-06-07T04:21:08.843Z,100995.21
2019-06-07T04:22:14.303Z,101000.07
2019-06-07T04:23:30.054Z,100996.06
2019-06-07T04:24:28.552Z,100994.37
2019-06-07T04:25:37.149Z,100993.88
2019-06-07T04:26:44.022Z,100997.75
2019-06-07T04:27:47.405Z,100990.90
2019-06-07T04:29:31.785Z,100988.94
2019-06-07T04:30:07.343Z,100988.09
2019-06-07T04:31:07.069Z,100984.76
2019-06-07T04:32:11.973Z,100984.62
2019-06-07T04:33:17.612Z,100987.62
2019-06-07T04:34:22.776Z,100974.60
2019-06-07T04:35:31.456Z,100976.30
2019-06-07T04:36:45.971Z,100973.45
2019-06-07T04:37:44.133Z,100972.83
2019-06-07T04:38:50.553Z,100970.83
2019-06-07T04:39:57.108Z,100969.33
2019-06-07T04:41:04.277Z,100964.33
2019-06-07T04:42:11.125Z,100959.83
2019-06-07T04:43:16.217Z,100961.84
2019-06-07T04:44:24.893Z,100961.34
2019-06-07T04:45:36.275Z,100960.86
2019-06-07T04:46:42.937Z,100962.69
2019-06-07T04:47:49.309Z,100963.18
2019-06-07T04:48:55.674Z,100955.67
2019-06-07T04:50:02.582Z,100950.81
2019-06-07T04:51:09.386Z,100955.02
2019-06-07T04:52:14.546Z,100950.16
2019-06-07T04:53:20.108Z,100953.67
2019-06-07T04:54:25.432Z,100952.53
2019-06-07T04:55:31.482Z,100952.88
2019-06-07T04:56:38.532Z,100949.71
2019-06-07T04:57:43.642Z,100950.03
2019-06-07T04:58:48.555Z,100953.42
2019-06-07T05:00:11.901Z,100949.90
2019-06-07T05:01:03.491Z,100942.23
2019-06-07T05:02:08.392Z,100939.88
2019-06-07T05:03:13.290Z,100939.27
2019-06-07T05:04:19.015Z,100938.26
2019-06-07T05:05:24.023Z,100944.45
2019-06-07T05:06:30.091Z,100945.16
2019-06-07T05:07:37.824Z,100940.13
2019-06-07T05:08:44.153Z,100939.64
2019-06-07T05:09:49.320Z,100942.67
2019-06-07T05:10:54.822Z,100937.01
2019-06-07T05:11:59.761Z,100938.08
2019-06-07T05:13:05.386Z,100936.66
2019-06-07T05:14:10.339Z,100937.55
2019-06-07T05:15:15.983Z,100942.99
2019-06-07T05:16:20.947Z,100943.74
2019-06-07T05:17:26.438Z,100941.14
2019-06-07T05:18:33.654Z,100946.57
2019-06-07T05:19:41.734Z,100944.14
2019-06-07T05:20:45.216Z,100935.66
2019-06-07T05:22:03.740Z,100944.46
2019-06-07T05:22:57.355Z,100934.31
2019-06-07T05:24:09.485Z,100935.20
2019-06-07T05:25:09.724Z,100937.08
2019-06-07T05:26:15.227Z,100937.45
2019-06-07T05:27:20.128Z,100941.01
2019-06-07T05:28:25.752Z,100937.53
2019-06-07T05:29:33.278Z,100944.41
2019-06-07T05:31:46.784Z,100932.22
2019-06-07T05:32:52.758Z,100925.18
2019-06-07T05:33:58.053Z,100923.00
2019-06-07T05:35:03.847Z,100916.45
2019-06-07T05:36:08.831Z,100922.00
2019-06-07T05:37:14.378Z,100916.45
2019-06-07T05:38:19.457Z,100904.70
2019-06-07T05:39:25.005Z,100905.02
2019-06-07T05:40:40.105Z,100896.46
2019-06-07T05:41:45.693Z,100901.15
2019-06-07T05:42:50.615Z,100899.80
2019-06-07T05:44:12.056Z,100902.46
2019-06-07T05:45:03.153Z,100904.64
2019-06-07T05:46:09.070Z,100901.11
2019-06-07T05:47:14.661Z,100902.45
2019-06-07T05:48:20.244Z,100898.41
2019-06-07T05:49:25.222Z,100900.76
2019-06-07T05:50:42.623Z,100898.41
2019-06-07T05:51:41.592Z,100905.48
2019-06-07T05:52:47.527Z,100905.63
2019-06-07T05:53:52.121Z,100906.97
2019-06-07T05:54:57.979Z,100905.78
2019-06-07T05:56:03.176Z,100909.11
2019-06-07T05:57:08.977Z,100907.27
2019-06-07T05:58:13.920Z,100907.25
2019-06-07T05:59:19.886Z,100904.52
2019-06-07T06:00:25.277Z,100905.02
2019-06-07T06:01:46.008Z,100904.00
2019-06-07T06:02:58.672Z,100896.42
2019-06-07T06:03:48.027Z,100903.95
2019-06-07T06:04:52.162Z,100904.08
2019-06-07T06:05:58.061Z,100903.56
2019-06-07T06:07:03.073Z,100901.52
2019-06-07T06:08:09.034Z,100896.42
2019-06-07T06:09:14.368Z,100889.67
2019-06-07T06:10:20.010Z,100890.84
2019-06-07T06:11:43.343Z,100890.32
2019-06-07T06:12:38.220Z,100887.25
2019-06-07T06:14:01.531Z,100882.16
2019-06-07T06:14:47.186Z,100881.28
2019-06-07T06:16:01.449Z,100882.61
2019-06-07T06:16:59.858Z,100874.00
2019-06-07T06:18:05.011Z,100872.63
2019-06-07T06:19:10.739Z,100870.59
2019-06-07T06:20:16.055Z,100871.91
2019-06-07T06:21:21.945Z,100876.56
2019-06-07T06:22:26.974Z,100877.05
2019-06-07T06:23:32.560Z,100870.98
2019-06-07T06:24:39.376Z,100869.47
2019-06-07T06:25:53.695Z,100876.82
2019-06-07T06:26:56.995Z,100880.16
2019-06-07T06:28:12.454Z,100877.09
2019-06-07T06:29:05.876Z,100874.40
2019-06-07T06:30:13.067Z,100875.92
2019-06-07T06:31:18.052Z,100868.98
2019-06-07T06:32:41.654Z,100871.14
2019-06-07T06:33:34.405Z,100868.55
2019-06-07T06:34:40.131Z,100865.12
2019-06-07T06:35:47.467Z,100871.48
2019-06-07T06:36:51.687Z,100859.69
2019-06-07T06:37:57.077Z,100864.37
2019-06-07T06:39:02.681Z,100862.52
2019-06-07T06:40:08.194Z,100860.84
2019-06-07T06:41:16.358Z,100858.98
2019-06-07T06:42:20.997Z,100857.44
2019-06-07T06:43:26.736Z,100855.55
2019-06-07T06:44:31.625Z,100856.02
2019-06-07T06:45:37.700Z,100858.20
2019-06-07T06:46:47.222Z,100862.42
2019-06-07T06:47:50.727Z,100858.44
2019-06-07T06:48:55.971Z,100850.36
2019-06-07T06:50:03.416Z,100857.40
2019-06-07T06:51:08.590Z,100857.91
2019-06-07T06:52:14.291Z,100850.39
2019-06-07T06:53:19.242Z,100852.75
2019-06-07T06:54:40.183Z,100851.61
2019-06-07T06:55:31.603Z,100849.55
2019-06-07T06:56:37.209Z,100846.81
2019-06-07T06:57:43.409Z,100846.61
2019-06-07T06:59:27.339Z,100850.11
2019-06-07T06:59:56.310Z,100849.03
2019-06-07T07:01:06.636Z,100849.84
2019-06-07T07:02:08.579Z,100849.97
2019-06-07T07:04:22.282Z,100846.22
2019-06-07T07:05:27.946Z,100847.03
2019-06-07T07:06:33.098Z,100844.53
2019-06-07T07:07:38.791Z,100840.53
2019-06-07T07:08:47.469Z,100845.66
2019-06-07T07:09:58.158Z,100856.11
2019-06-07T07:10:58.700Z,100849.10
2019-06-07T07:12:12.038Z,100843.92
2019-06-07T07:13:11.368Z,100840.12
2019-06-07T07:14:16.967Z,100842.31
2019-06-07T07:15:22.068Z,100832.41
2019-06-07T07:16:28.115Z,100839.01
2019-06-07T07:17:50.644Z,100853.70
2019-06-07T07:18:41.741Z,100836.72
2019-06-07T07:19:49.784Z,100836.95
2019-06-07T07:20:57.300Z,100840.52
2019-06-07T07:22:01.384Z,100837.36
2019-06-07T07:23:07.442Z,100843.75
2019-06-07T07:24:21.746Z,100839.06
2019-06-07T07:25:20.054Z,100831.66
2019-06-07T07:26:25.643Z,100830.01
2019-06-07T07:27:31.172Z,100816.03
2019-06-07T07:28:36.242Z,100814.48
2019-06-07T07:29:44.520Z,100816.17
2019-06-07T07:30:54.408Z,100814.82
2019-06-07T07:31:56.910Z,100811.42
2019-06-07T07:33:02.202Z,100809.91
2019-06-07T07:35:15.017Z,100806.80
2019-06-07T07:36:38.154Z,100799.03
2019-06-07T07:37:27.715Z,100805.25
2019-06-07T07:38:33.465Z,100803.03
2019-06-07T07:39:38.626Z,100804.72
2019-06-07T07:42:15.316Z,100797.17
2019-06-07T07:42:59.091Z,100797.04
2019-06-07T07:44:07.283Z,100793.50
2019-06-07T07:45:11.949Z,100793.16
2019-06-07T07:46:29.251Z,100784.07
2019-06-07T07:47:24.170Z,100785.75
2019-06-07T07:48:29.142Z,100789.93
2019-06-07T07:49:34.988Z,100791.08
2019-06-07T07:50:40.316Z,100792.25
2019-06-07T07:51:46.444Z,100779.79
2019-06-07T07:52:56.032Z,100788.72
2019-06-07T07:54:10.299Z,100781.84
2019-06-07T07:55:05.976Z,100776.96
2019-06-07T07:56:11.534Z,100766.89
2019-06-07T07:57:16.425Z,100777.67
2019-06-07T07:58:23.222Z,100771.77
2019-06-07T07:59:41.874Z,100768.54
2019-06-07T08:00:52.428Z,100769.89
2019-06-07T08:01:42.904Z,100763.36
2019-06-07T08:02:49.839Z,100764.88
2019-06-07T08:03:56.598Z,100759.69
2019-06-07T08:05:25.526Z,100760.53
2019-06-07T08:06:09.308Z,100755.31
2019-06-07T08:07:15.301Z,100757.67
2019-06-07T08:08:20.334Z,100760.56
2019-06-07T08:09:25.894Z,100760.44
2019-06-07T08:10:30.823Z,100756.77
2019-06-07T08:11:36.385Z,100750.53
2019-06-07T08:13:00.160Z,100737.61
2019-06-07T08:13:50.486Z,100749.59
2019-06-07T08:14:58.491Z,100747.41
2019-06-07T08:16:08.889Z,100741.17
2019-06-07T08:17:10.023Z,100746.39
2019-06-07T08:18:15.773Z,100745.05
2019-06-07T08:19:20.778Z,100727.20
2019-06-07T08:20:26.485Z,100742.86
2019-06-07T08:21:31.440Z,100733.43
2019-06-07T08:22:36.984Z,100736.97
2019-06-07T08:23:41.899Z,100717.60
2019-06-07T08:24:50.476Z,100713.86
2019-06-07T08:25:57.269Z,100716.25
2019-06-07T08:27:24.814Z,100711.17
2019-06-07T08:28:09.190Z,100709.83
2019-06-07T08:29:14.716Z,100709.66
2019-06-07T08:30:47.989Z,100708.10
2019-06-07T08:31:27.406Z,100700.19
2019-06-07T08:32:32.374Z,100695.94
2019-06-07T08:33:38.055Z,100697.88
2019-06-07T08:34:43.557Z,100704.75
2019-06-07T08:36:19.418Z,100695.15
2019-06-07T08:37:00.124Z,100698.86
2019-06-07T08:39:09.809Z,100692.12
2019-06-07T08:40:17.028Z,100692.45
2019-06-07T08:41:22.202Z,100689.05
2019-06-07T08:42:37.087Z,100690.22
2019-06-07T08:43:34.673Z,100686.98
2019-06-07T08:44:40.248Z,100684.03
2019-06-07T08:45:45.352Z,100677.25
2019-06-07T08:46:56.627Z,100684.63
2019-06-07T08:48:04.485Z,100683.64
2019-06-07T08:49:05.557Z,100677.03
2019-06-07T08:50:11.272Z,100674.97
2019-06-07T08:51:16.856Z,100668.23
2019-06-07T08:52:21.747Z,100673.95
2019-06-07T08:53:27.483Z,100660.65
2019-06-07T08:54:32.934Z,100667.17
2019-06-07T08:55:38.875Z,100664.09
2019-06-07T08:56:43.868Z,100653.94
2019-06-07T08:57:49.376Z,100652.03
2019-06-07T08:58:56.865Z,100655.81
2019-06-07T09:00:15.733Z,100669.42
2019-06-07T09:01:09.278Z,100654.92
2019-06-07T09:02:23.596Z,100657.62
2019-06-07T09:03:22.124Z,100656.39
2019-06-07T09:04:28.061Z,100667.84
2019-06-07T09:05:33.297Z,100652.80
2019-06-07T09:07:02.431Z,100650.23
2019-06-07T09:07:45.779Z,100656.80
2019-06-07T09:08:51.943Z,100660.45
2019-06-07T09:10:03.156Z,100660.66
2019-06-07T09:11:10.896Z,100651.91
2019-06-07T09:12:12.671Z,100639.77
2019-06-07T09:13:18.258Z,100642.80
2019-06-07T09:14:23.560Z,100641.13
2019-06-07T09:15:29.459Z,100651.40
2019-06-07T09:16:34.571Z,100646.34
2019-06-07T09:18:29.042Z,100641.39
2019-06-07T09:18:46.984Z,100639.45
2019-06-07T09:19:54.151Z,100638.55
2019-06-07T09:21:01.215Z,100636.81
2019-06-07T09:22:10.872Z,100628.72
2019-06-07T09:23:17.337Z,100628.84
2019-06-07T09:24:21.179Z,100626.47
2019-06-07T09:25:26.505Z,100627.44
2019-06-07T09:26:32.336Z,100627.25
2019-06-07T09:27:37.653Z,100628.60
2019-06-07T09:28:43.452Z,100611.36
2019-06-07T09:29:48.715Z,100608.99
2019-06-07T09:30:54.356Z,100617.72
2019-06-07T09:32:01.988Z,100611.62
2019-06-07T09:33:07.075Z,100603.86
2019-06-07T09:34:15.103Z,100591.18
2019-06-07T09:35:19.871Z,100589.02
2019-06-07T09:36:24.836Z,100585.27
2019-06-07T09:38:37.910Z,100582.91
2019-06-07T09:39:43.984Z,100585.60
2019-06-07T09:40:49.166Z,100585.60
2019-06-07T09:41:56.301Z,100570.43
2019-06-07T09:43:47.447Z,100573.13
2019-06-07T09:44:21.387Z,100576.48
2019-06-07T09:45:17.039Z,100568.00
2019-06-07T09:46:22.651Z,100574.02
2019-06-07T09:47:32.292Z,100565.59
2019-06-07T09:49:10.023Z,100565.30
2019-06-07T09:49:42.563Z,100563.95
2019-06-07T09:50:48.093Z,100565.30
2019-06-07T09:51:53.339Z,100575.25
2019-06-07T09:53:10.086Z,100572.73
2019-06-07T09:54:08.625Z,100570.55
2019-06-07T09:55:23.718Z,100561.31
2019-06-07T09:56:19.836Z,100576.09
2019-06-07T09:57:25.358Z,100567.60
2019-06-07T09:58:51.128Z,100573.33
2019-06-07T09:59:37.895Z,100571.14
2019-06-07T10:00:43.154Z,100569.61
2019-06-07T10:01:49.571Z,100557.80
2019-06-07T10:02:54.641Z,100559.58
2019-06-07T10:04:04.647Z,100564.38
2019-06-07T10:05:13.673Z,100568.35
2019-06-07T10:06:15.802Z,100565.91
2019-06-07T10:07:31.431Z,100568.83
2019-06-07T10:10:43.591Z,100546.88
2019-06-07T10:11:48.636Z,100553.88
2019-06-07T10:12:54.695Z,100550.55
2019-06-07T10:14:00.318Z,100562.13
2019-06-07T10:15:07.392Z,100566.50
2019-06-07T10:16:12.577Z,100561.75
2019-06-07T10:17:18.093Z,100558.02
2019-06-07T10:18:23.029Z,100554.48
2019-06-07T10:19:29.147Z,100556.97
2019-06-07T10:20:34.540Z,100537.77
2019-06-07T10:21:40.213Z,100549.52
2019-06-07T10:22:45.518Z,100546.27
2019-06-07T10:23:51.105Z,100555.86
2019-06-07T10:24:56.391Z,100547.03
2019-06-07T10:26:01.930Z,100540.89
2019-06-07T10:27:07.926Z,100538.73
2019-06-07T10:28:13.650Z,100539.36
2019-06-07T10:29:18.558Z,100543.52
2019-06-07T10:30:24.529Z,100545.81
2019-06-07T10:31:29.753Z,100537.70
2019-06-07T10:32:35.727Z,100532.81
2019-06-07T10:33:40.860Z,100536.71
2019-06-07T10:34:46.555Z,100531.79
2019-06-07T10:35:51.819Z,100538.77
2019-06-07T10:36:57.359Z,100528.66
2019-06-07T10:38:02.496Z,100530.22
2019-06-07T10:39:09.115Z,100529.90
2019-06-07T10:40:14.429Z,100540.38
2019-06-07T10:41:20.019Z,100524.39
2019-06-07T10:42:24.921Z,100521.87
2019-06-07T10:43:30.709Z,100535.38
2019-06-07T10:44:35.697Z,100532.91
2019-06-07T10:45:41.558Z,100531.22
2019-06-07T10:46:46.634Z,100516.37
2019-06-07T10:47:52.208Z,100518.04
2019-06-07T10:48:57.270Z,100508.69
2019-06-07T10:50:03.882Z,100514.85
2019-06-07T10:51:11.426Z,100511.66
2019-06-07T10:52:16.513Z,100508.05
2019-06-07T10:53:21.439Z,100497.39
2019-06-07T10:54:30.697Z,100495.73
2019-06-07T10:55:33.734Z,100494.49
2019-06-07T10:56:39.339Z,100492.95
2019-06-07T10:57:44.457Z,100486.07
2019-06-07T10:58:50.295Z,100492.22
2019-06-07T10:59:55.577Z,100484.43
2019-06-07T11:01:01.231Z,100484.20
2019-06-07T11:02:07.810Z,100485.98
2019-06-07T11:03:14.230Z,100488.78
2019-06-07T11:04:19.244Z,100484.72
2019-06-07T11:05:24.870Z,100476.92
2019-06-07T11:06:29.869Z,100480.56
2019-06-07T11:07:35.929Z,100472.06
2019-06-07T11:08:41.305Z,100463.11
2019-06-07T11:09:47.012Z,100462.14
2019-06-07T11:10:52.028Z,100469.42
2019-06-07T11:11:57.809Z,100465.36
2019-06-07T11:13:04.074Z,100455.90
2019-06-07T11:14:10.578Z,100458.92
2019-06-07T11:15:16.445Z,100455.48
2019-06-07T11:16:21.899Z,100446.75
2019-06-07T11:17:26.989Z,100444.37
2019-06-07T11:18:32.782Z,100449.78
2019-06-07T11:19:37.921Z,100437.09
2019-06-07T11:20:43.613Z,100429.61
2019-06-07T11:21:48.597Z,100430.13
2019-06-07T11:22:54.323Z,100424.20
2019-06-07T11:23:59.590Z,100420.98
2019-06-07T11:25:07.801Z,100414.54
2019-06-07T11:26:14.456Z,100421.17
2019-06-07T11:27:20.086Z,100421.06
2019-06-07T11:28:25.488Z,100420.55
2019-06-07T11:29:31.119Z,100412.95
2019-06-07T11:30:36.135Z,100406.18
2019-06-07T11:31:41.767Z,100399.42
2019-06-07T11:32:46.795Z,100398.58
2019-06-07T11:33:52.638Z,100400.77
2019-06-07T11:34:57.601Z,100400.34
2019-06-07T11:36:03.093Z,100393.80
2019-06-07T11:37:09.393Z,100388.24
2019-06-07T11:38:16.344Z,100390.84
2019-06-07T11:39:21.376Z,100399.17
2019-06-07T11:40:34.885Z,100392.27
2019-06-07T11:41:34.028Z,100386.02
2019-06-07T11:42:39.594Z,100386.30
2019-06-07T11:43:44.572Z,100380.38
2019-06-07T11:44:56.916Z,100383.60
2019-06-07T11:45:57.470Z,100377.90
2019-06-07T11:47:03.020Z,100378.94
2019-06-07T11:48:09.085Z,100381.64
2019-06-07T11:49:19.917Z,100383.52
2019-06-07T11:50:21.654Z,100377.58
2019-06-07T11:51:27.554Z,100376.83
2019-06-07T11:52:32.581Z,100371.94
2019-06-07T11:53:38.085Z,100369.78
2019-06-07T11:54:43.083Z,100370.06
2019-06-07T11:55:48.730Z,100384.23
2019-06-07T11:56:53.837Z,100376.92
2019-06-07T11:57:59.427Z,100377.33
2019-06-07T11:59:05.026Z,100367.73
2019-06-07T12:00:13.956Z,100377.27
2019-06-07T12:01:19.099Z,100369.95
2019-06-07T12:02:26.127Z,100368.67
2019-06-07T12:03:31.207Z,100364.45
2019-06-07T12:04:37.212Z,100361.98
2019-06-07T12:05:42.446Z,100366.03
2019-06-07T12:06:48.068Z,100372.27
2019-06-07T12:07:53.165Z,100351.86
2019-06-07T12:08:59.142Z,100353.09
2019-06-07T12:10:04.665Z,100341.22
2019-06-07T12:11:10.352Z,100364.28
2019-06-07T12:12:16.563Z,100354.20
2019-06-07T12:13:22.455Z,100353.81
2019-06-07T12:14:27.807Z,100345.02
2019-06-07T12:15:33.442Z,100342.89
2019-06-07T12:16:38.670Z,100339.59
2019-06-07T12:17:44.316Z,100339.13
2019-06-07T12:18:49.614Z,100342.23
2019-06-07T12:19:55.169Z,100331.20
2019-06-07T12:21:00.467Z,100335.52
2019-06-07T12:22:06.048Z,100322.99
2019-06-07T12:23:12.035Z,100329.33
2019-06-07T12:24:19.480Z,100319.83
2019-06-07T12:25:25.239Z,100329.63
2019-06-07T12:26:31.506Z,100325.37
2019-06-07T12:27:36.773Z,100310.95
2019-06-07T12:28:42.486Z,100317.89
2019-06-07T12:29:47.403Z,100323.00
2019-06-07T12:30:55.241Z,100323.33
2019-06-07T12:32:00.175Z,100326.12
2019-06-07T12:33:05.829Z,100314.95
2019-06-07T12:34:11.297Z,100303.22
2019-06-07T12:35:17.767Z,100309.19
2019-06-07T12:36:22.816Z,100312.91
2019-06-07T12:37:42.653Z,100312.63
2019-06-07T12:38:34.992Z,100309.36
2019-06-07T12:39:40.490Z,100307.56
2019-06-07T12:40:57.238Z,100311.70
2019-06-07T12:41:53.210Z,100300.65
2019-06-07T12:42:58.189Z,100304.27
2019-06-07T12:44:04.087Z,100300.27
2019-06-07T12:45:09.780Z,100290.57
2019-06-07T12:46:22.390Z,100300.97